createdAt,value
2018-07-24T00:01:46.305Z,22.10
2018-07-24T00:04:14.595Z,22.10
2018-07-24T00:06:42.853Z,22.10
2018-07-24T00:09:11.017Z,22.10
2018-07-24T00:11:39.179Z,22.00
2018-07-24T00:14:07.621Z,22.00
2018-07-24T00:16:35.833Z,22.00
2018-07-24T00:19:04.029Z,22.00
2018-07-24T00:21:32.228Z,22.00
2018-07-24T00:24:00.518Z,22.00
2018-07-24T00:26:28.905Z,22.00
2018-07-24T00:28:57.125Z,21.90
2018-07-24T00:31:25.366Z,22.00
2018-07-24T00:33:53.661Z,22.00
2018-07-24T00:36:21.853Z,22.00
2018-07-24T00:38:50.258Z,22.00
2018-07-24T00:41:18.515Z,22.00
2018-07-24T00:43:46.759Z,22.00
2018-07-24T00:46:14.963Z,21.90
2018-07-24T00:48:43.197Z,21.90
2018-07-24T00:51:11.452Z,21.90
2018-07-24T00:53:39.676Z,21.90
2018-07-24T00:56:08.032Z,21.90
2018-07-24T00:58:36.188Z,21.80
2018-07-24T01:01:04.588Z,21.80
2018-07-24T01:03:33.068Z,21.80
2018-07-24T01:06:01.476Z,21.70
2018-07-24T01:08:29.696Z,21.70
2018-07-24T01:10:57.961Z,21.60
2018-07-24T01:13:26.156Z,21.60
2018-07-24T01:15:54.600Z,21.60
2018-07-24T01:18:22.834Z,21.50
2018-07-24T01:20:51.096Z,21.50
2018-07-24T01:23:19.331Z,21.60
2018-07-24T01:25:47.686Z,21.60
2018-07-24T01:28:15.858Z,21.60
2018-07-24T01:30:44.011Z,21.60
2018-07-24T01:33:12.186Z,21.60
2018-07-24T01:35:41.602Z,21.60
2018-07-24T01:38:09.820Z,21.70
2018-07-24T01:40:37.998Z,21.70
2018-07-24T01:43:06.204Z,21.60
2018-07-24T01:45:34.493Z,21.60
2018-07-24T01:48:02.775Z,21.60
2018-07-24T01:50:31.636Z,21.60
2018-07-24T01:52:59.909Z,21.50
2018-07-24T01:55:28.201Z,21.50
2018-07-24T01:57:56.419Z,21.50
2018-07-24T02:00:24.740Z,21.40
2018-07-24T02:02:52.930Z,21.40
2018-07-24T02:05:21.315Z,21.40
2018-07-24T02:07:49.484Z,21.30
2018-07-24T02:10:17.702Z,21.30
2018-07-24T02:12:45.885Z,21.30
2018-07-24T02:15:14.266Z,21.20
2018-07-24T02:17:42.486Z,21.20
2018-07-24T02:20:10.741Z,21.20
2018-07-24T02:22:38.976Z,21.20
2018-07-24T02:25:07.515Z,21.20
2018-07-24T02:27:35.698Z,21.20
2018-07-24T02:30:04.594Z,21.20
2018-07-24T02:35:01.999Z,21.20
2018-07-24T02:37:30.231Z,21.20
2018-07-24T02:42:26.407Z,21.20
2018-07-24T02:44:54.741Z,21.20
2018-07-24T02:47:23.002Z,21.20
2018-07-24T02:49:51.272Z,21.30
2018-07-24T02:52:19.462Z,21.30
2018-07-24T02:54:47.836Z,21.30
2018-07-24T02:57:16.093Z,21.20
2018-07-24T02:59:44.318Z,21.20
2018-07-24T03:02:12.522Z,21.10
2018-07-24T03:04:41.020Z,21.10
2018-07-24T03:07:09.328Z,21.00
2018-07-24T03:09:37.559Z,21.00
2018-07-24T03:12:05.810Z,20.90
2018-07-24T03:14:34.277Z,20.90
2018-07-24T03:17:02.498Z,20.80
2018-07-24T03:19:30.756Z,20.80
2018-07-24T03:21:59.052Z,20.80
2018-07-24T03:24:27.317Z,20.70
2018-07-24T03:26:55.620Z,20.70
2018-07-24T03:29:23.853Z,20.70
2018-07-24T03:31:52.074Z,20.70
2018-07-24T03:34:21.530Z,20.70
2018-07-24T03:36:49.972Z,20.70
2018-07-24T03:39:18.328Z,20.70
2018-07-24T03:41:46.713Z,20.60
2018-07-24T03:44:16.015Z,20.60
2018-07-24T03:46:44.314Z,20.60
2018-07-24T03:49:12.563Z,20.60
2018-07-24T03:51:40.736Z,20.50
2018-07-24T03:54:09.162Z,20.50
2018-07-24T03:56:37.391Z,20.50
2018-07-24T03:59:05.605Z,20.50
2018-07-24T04:01:33.821Z,20.50
2018-07-24T04:04:02.227Z,20.50
2018-07-24T04:06:30.453Z,20.50
2018-07-24T04:08:58.679Z,20.50
2018-07-24T04:11:26.825Z,20.60
2018-07-24T04:13:55.076Z,20.60
2018-07-24T04:16:23.247Z,20.60
2018-07-24T04:18:51.433Z,20.60
2018-07-24T04:21:20.090Z,20.60
2018-07-24T04:23:49.147Z,20.60
2018-07-24T04:26:17.645Z,20.60
2018-07-24T04:28:46.454Z,20.60
2018-07-24T04:31:15.179Z,20.70
2018-07-24T04:33:44.097Z,20.60
2018-07-24T04:36:12.367Z,20.70
2018-07-24T04:41:08.556Z,20.70
2018-07-24T04:43:36.860Z,20.70
2018-07-24T04:46:05.109Z,20.70
2018-07-24T04:48:33.605Z,20.70
2018-07-24T04:51:01.935Z,20.80
2018-07-24T04:53:30.167Z,20.80
2018-07-24T04:55:58.574Z,20.90
2018-07-24T05:00:55.018Z,21.00
2018-07-24T05:03:23.323Z,21.00
2018-07-24T05:05:51.513Z,21.00
2018-07-24T05:08:19.806Z,21.00
2018-07-24T05:10:47.973Z,21.10
2018-07-24T05:13:16.298Z,21.10
2018-07-24T05:15:44.620Z,21.20
2018-07-24T05:18:12.875Z,21.20
2018-07-24T05:20:41.052Z,21.30
2018-07-24T05:23:15.584Z,21.40
2018-07-24T05:25:44.952Z,21.50
2018-07-24T05:28:13.164Z,21.60
2018-07-24T05:30:41.353Z,21.70
2018-07-24T05:33:09.661Z,21.80
2018-07-24T05:35:37.856Z,21.90
2018-07-24T05:38:06.092Z,22.00
2018-07-24T05:40:34.348Z,22.10
2018-07-24T05:43:02.551Z,22.20
2018-07-24T05:45:30.883Z,22.30
2018-07-24T05:47:59.079Z,22.50
2018-07-24T05:50:27.284Z,22.60
2018-07-24T05:52:55.573Z,22.70
2018-07-24T05:55:24.799Z,22.80
2018-07-24T05:57:53.208Z,22.90
2018-07-24T06:00:22.361Z,23.00
2018-07-24T06:02:50.566Z,23.00
2018-07-24T06:05:19.937Z,23.10
2018-07-24T06:07:48.165Z,23.10
2018-07-24T06:10:17.047Z,23.20
2018-07-24T06:12:45.244Z,23.30
2018-07-24T06:15:14.514Z,23.30
2018-07-24T06:17:42.703Z,23.40
2018-07-24T06:22:39.632Z,23.50
2018-07-24T06:25:08.199Z,23.60
2018-07-24T06:27:36.413Z,23.60
2018-07-24T06:30:05.708Z,23.70
2018-07-24T06:32:33.943Z,23.80
2018-07-24T06:35:02.400Z,23.80
2018-07-24T06:37:30.619Z,23.90
2018-07-24T06:39:58.819Z,24.00
2018-07-24T06:44:55.015Z,24.10
2018-07-24T06:47:23.275Z,24.10
2018-07-24T06:49:51.512Z,24.20
2018-07-24T06:52:19.763Z,24.10
2018-07-24T06:54:48.160Z,24.20
2018-07-24T06:57:16.400Z,24.20
2018-07-24T06:59:44.540Z,24.30
2018-07-24T07:02:13.113Z,24.40
2018-07-24T07:04:41.239Z,24.50
2018-07-24T07:07:09.439Z,24.60
2018-07-24T07:09:37.708Z,24.70
2018-07-24T07:14:33.941Z,24.90
2018-07-24T07:17:02.165Z,24.90
2018-07-24T07:19:30.353Z,25.00
2018-07-24T07:21:58.610Z,25.00
2018-07-24T07:24:28.029Z,25.10
2018-07-24T07:26:56.290Z,25.20
2018-07-24T07:29:24.634Z,25.30
2018-07-24T07:31:52.853Z,25.40
2018-07-24T07:34:21.127Z,25.50
2018-07-24T07:36:49.384Z,25.60
2018-07-24T07:39:17.652Z,25.60
2018-07-24T07:41:45.803Z,25.70
2018-07-24T07:44:14.014Z,25.80
2018-07-24T07:46:42.214Z,25.90
2018-07-24T07:49:10.420Z,26.00
2018-07-24T07:51:38.696Z,26.10
2018-07-24T07:57:06.896Z,26.10
2018-07-24T07:59:35.123Z,26.10
2018-07-24T08:02:03.431Z,26.10
2018-07-24T08:04:31.764Z,26.10
2018-07-24T08:06:59.969Z,26.10
2018-07-24T08:09:29.144Z,26.30
2018-07-24T08:11:57.357Z,26.30
2018-07-24T08:14:25.710Z,26.40
2018-07-24T08:16:53.980Z,26.40
2018-07-24T08:19:22.176Z,26.50
2018-07-24T08:21:50.500Z,26.50
2018-07-24T08:24:18.808Z,26.60
2018-07-24T08:26:47.039Z,26.70
2018-07-24T08:29:15.301Z,26.80
2018-07-24T08:31:43.541Z,26.80
2018-07-24T08:36:39.784Z,26.90
2018-07-24T08:39:09.741Z,26.90
2018-07-24T08:41:37.979Z,27.00
2018-07-24T08:44:06.196Z,27.10
2018-07-24T08:46:34.419Z,27.20
2018-07-24T08:49:02.733Z,27.20
2018-07-24T08:53:59.679Z,27.30
2018-07-24T08:56:27.593Z,27.30
2018-07-24T08:58:55.786Z,27.30
2018-07-24T09:01:24.030Z,27.30
2018-07-24T09:03:52.486Z,27.20
2018-07-24T09:06:20.638Z,27.20
2018-07-24T09:11:16.852Z,27.00
2018-07-24T09:13:45.156Z,26.90
2018-07-24T09:16:13.442Z,26.80
2018-07-24T09:18:41.656Z,26.80
2018-07-24T09:21:09.989Z,26.90
2018-07-24T09:23:38.359Z,27.10
2018-07-24T09:26:07.246Z,27.30
2018-07-24T09:28:35.817Z,27.50
2018-07-24T09:31:04.206Z,27.80
2018-07-24T09:33:32.407Z,27.90
2018-07-24T09:36:00.849Z,28.10
2018-07-24T09:38:29.069Z,28.10
2018-07-24T09:40:57.304Z,28.30
2018-07-24T09:43:28.551Z,28.30
2018-07-24T09:45:56.933Z,28.30
2018-07-24T09:48:25.148Z,28.20
2018-07-24T09:50:53.401Z,28.10
2018-07-24T09:53:21.600Z,28.00
2018-07-24T09:55:49.927Z,28.20
2018-07-24T09:58:18.106Z,28.30
2018-07-24T10:00:51.701Z,28.40
2018-07-24T10:03:19.903Z,28.50
2018-07-24T10:05:48.288Z,28.60
2018-07-24T10:08:16.645Z,28.60
2018-07-24T10:10:44.844Z,28.50
2018-07-24T10:13:13.206Z,28.50
2018-07-24T10:15:41.614Z,28.50
2018-07-24T10:18:09.885Z,28.50
2018-07-24T10:20:38.119Z,28.70
2018-07-24T10:23:06.331Z,28.70
2018-07-24T10:25:34.714Z,28.60
2018-07-24T10:28:02.926Z,28.60
2018-07-24T10:30:31.242Z,28.60
2018-07-24T10:33:00.097Z,28.70
2018-07-24T10:35:28.837Z,28.80
2018-07-24T10:37:57.069Z,28.90
2018-07-24T10:40:25.333Z,28.80
2018-07-24T10:42:53.628Z,28.80
2018-07-24T10:45:21.892Z,28.70
2018-07-24T10:47:50.120Z,28.50
2018-07-24T10:50:18.397Z,28.40
2018-07-24T10:52:46.615Z,28.30
2018-07-24T10:55:15.147Z,28.40
2018-07-24T10:57:43.432Z,28.40
2018-07-24T11:00:11.717Z,28.30
2018-07-24T11:02:39.952Z,28.20
2018-07-24T11:05:08.587Z,28.10
2018-07-24T11:07:36.889Z,28.10
2018-07-24T11:10:05.275Z,28.20
2018-07-24T11:12:33.574Z,28.30
2018-07-24T11:15:02.126Z,28.40
2018-07-24T11:17:30.305Z,28.40
2018-07-24T11:19:58.532Z,28.30
2018-07-24T11:22:26.863Z,28.20
2018-07-24T11:24:55.138Z,28.20
2018-07-24T11:30:15.944Z,28.10
2018-07-24T11:32:45.475Z,28.00
2018-07-24T11:35:13.997Z,28.00
2018-07-24T11:40:10.236Z,28.00
2018-07-24T11:42:39.222Z,28.00
2018-07-24T11:47:36.467Z,28.10
2018-07-24T11:50:04.858Z,28.10
2018-07-24T11:52:33.074Z,28.20
2018-07-24T11:55:01.512Z,28.20
2018-07-24T11:57:29.773Z,28.30
2018-07-24T11:59:58.976Z,28.30
2018-07-24T12:02:27.191Z,28.50
2018-07-24T12:04:55.633Z,28.50
2018-07-24T12:07:23.868Z,28.80
2018-07-24T12:09:52.074Z,29.00
2018-07-24T12:12:20.373Z,29.10
2018-07-24T12:17:16.646Z,29.10
2018-07-24T12:19:44.848Z,29.10
2018-07-24T12:22:19.709Z,29.00
2018-07-24T12:24:47.963Z,28.90
2018-07-24T12:27:16.269Z,28.90
2018-07-24T12:29:44.496Z,29.20
2018-07-24T12:32:12.698Z,29.20
2018-07-24T12:34:41.037Z,29.20
2018-07-24T12:37:09.294Z,29.10
2018-07-24T12:39:37.499Z,28.90
2018-07-24T12:42:05.894Z,29.00
2018-07-24T12:44:34.165Z,29.20
2018-07-24T12:47:02.423Z,29.20
2018-07-24T12:49:30.613Z,29.10
2018-07-24T12:51:58.817Z,29.10
2018-07-24T12:54:27.082Z,29.30
2018-07-24T12:56:55.272Z,29.20
2018-07-24T12:59:23.505Z,29.20
2018-07-24T13:01:51.838Z,29.10
2018-07-24T13:04:20.173Z,29.10
2018-07-24T13:06:48.419Z,29.20
2018-07-24T13:09:16.696Z,29.20
2018-07-24T13:11:44.866Z,29.20
2018-07-24T13:14:13.257Z,29.20
2018-07-24T13:16:41.551Z,29.30
2018-07-24T13:19:09.667Z,29.30
2018-07-24T13:21:37.915Z,29.40
2018-07-24T13:24:06.387Z,29.40
2018-07-24T13:26:34.627Z,29.50
2018-07-24T13:29:02.837Z,29.50
2018-07-24T13:31:31.074Z,29.50
2018-07-24T13:33:59.485Z,29.40
2018-07-24T13:36:27.711Z,29.30
2018-07-24T13:38:55.974Z,29.20
2018-07-24T13:41:24.201Z,28.90
2018-07-24T13:43:52.555Z,28.70
2018-07-24T13:46:20.775Z,28.60
2018-07-24T13:48:49.002Z,28.50
2018-07-24T13:51:17.242Z,28.40
2018-07-24T13:53:45.462Z,28.40
2018-07-24T13:56:13.653Z,28.40
2018-07-24T13:58:41.936Z,28.40
2018-07-24T14:01:10.176Z,28.50
2018-07-24T14:03:38.402Z,28.60
2018-07-24T14:06:06.606Z,28.60
2018-07-24T14:08:34.952Z,28.50
2018-07-24T14:11:03.199Z,28.50
2018-07-24T14:13:31.365Z,28.50
2018-07-24T14:18:27.545Z,28.70
2018-07-24T14:20:55.790Z,28.80
2018-07-24T14:23:24.000Z,28.90
2018-07-24T14:25:52.437Z,28.90
2018-07-24T14:28:20.661Z,29.00
2018-07-24T14:30:48.897Z,29.10
2018-07-24T14:33:17.104Z,29.20
2018-07-24T14:35:45.485Z,29.30
2018-07-24T14:38:13.944Z,29.30
2018-07-24T14:40:42.214Z,29.30
2018-07-24T15:00:28.539Z,29.30
2018-07-24T15:20:14.382Z,29.10
2018-07-24T16:01:07.628Z,28.70
2018-07-24T16:20:54.148Z,28.40
2018-07-24T16:40:40.589Z,27.90
2018-07-24T16:43:08.895Z,27.80
2018-07-24T16:45:37.504Z,27.70
2018-07-24T16:48:05.963Z,27.70
2018-07-24T16:50:34.501Z,27.70
2018-07-24T16:53:02.874Z,27.80
2018-07-24T16:55:31.301Z,27.80
2018-07-24T16:57:59.697Z,27.80
2018-07-24T17:00:28.088Z,27.80
2018-07-24T17:02:56.429Z,27.80
2018-07-24T17:05:28.190Z,27.80
2018-07-24T17:07:56.390Z,27.80
2018-07-24T17:10:24.663Z,27.90
2018-07-24T17:12:52.882Z,27.80
2018-07-24T17:15:21.348Z,27.80
2018-07-24T17:17:49.627Z,27.80
2018-07-24T17:20:17.856Z,27.90
2018-07-24T17:22:46.095Z,27.80
2018-07-24T17:25:14.453Z,27.80
2018-07-24T17:27:42.728Z,27.70
2018-07-24T17:30:10.938Z,27.70
2018-07-24T17:32:39.151Z,27.70
2018-07-24T17:35:07.937Z,27.70
2018-07-24T17:37:36.171Z,27.70
2018-07-24T17:40:04.431Z,27.70
2018-07-24T17:42:32.663Z,27.60
2018-07-24T17:45:00.990Z,27.60
2018-07-24T17:47:29.195Z,27.60
2018-07-24T17:49:57.395Z,27.60
2018-07-24T17:52:25.617Z,27.50
2018-07-24T17:54:53.907Z,27.40
2018-07-24T17:57:22.165Z,27.40
2018-07-24T17:59:50.383Z,27.40
2018-07-24T18:02:18.568Z,27.40
2018-07-24T18:04:46.852Z,27.30
2018-07-24T18:07:15.071Z,27.30
2018-07-24T18:09:43.474Z,27.30
2018-07-24T18:14:46.371Z,27.20
2018-07-24T18:17:14.578Z,27.20
2018-07-24T18:19:42.805Z,27.20
2018-07-24T18:22:11.112Z,27.10
2018-07-24T18:24:39.304Z,27.10
2018-07-24T18:27:07.577Z,27.10
2018-07-24T18:32:03.897Z,27.00
2018-07-24T18:34:32.196Z,26.90
2018-07-24T18:39:28.422Z,26.70
2018-07-24T18:41:56.691Z,26.70
2018-07-24T18:44:24.962Z,26.60
2018-07-24T18:46:53.860Z,26.60
2018-07-24T18:49:22.025Z,26.60
2018-07-24T18:54:18.684Z,26.50
2018-07-24T18:56:46.861Z,26.40
2018-07-24T19:01:43.137Z,26.30
2018-07-24T19:04:12.580Z,26.20
2018-07-24T19:06:40.907Z,26.20
2018-07-24T19:09:10.398Z,26.20
2018-07-24T19:11:38.692Z,26.10
2018-07-24T19:14:07.307Z,26.10
2018-07-24T19:16:35.532Z,26.00
2018-07-24T19:19:03.845Z,25.90
2018-07-24T19:21:31.992Z,25.90
2018-07-24T19:24:00.379Z,25.80
2018-07-24T19:26:28.553Z,25.60
2018-07-24T19:28:56.774Z,25.40
2018-07-24T19:31:24.972Z,25.20
2018-07-24T19:36:21.296Z,24.70
2018-07-24T19:38:49.490Z,24.60
2018-07-24T19:41:17.704Z,24.50
2018-07-24T19:43:46.039Z,24.50
2018-07-24T19:46:14.326Z,24.50
2018-07-24T19:48:42.672Z,24.60
2018-07-24T19:53:39.082Z,24.50
2018-07-24T19:56:07.404Z,24.40
2018-07-24T19:58:35.565Z,24.30
2018-07-24T20:01:03.819Z,24.30
2018-07-24T20:03:32.033Z,24.30
2018-07-24T20:06:00.216Z,24.30
2018-07-24T20:08:28.448Z,24.20
2018-07-24T20:10:56.667Z,24.10
2018-07-24T20:13:24.968Z,24.10
2018-07-24T20:15:53.355Z,24.10
2018-07-24T20:18:21.581Z,24.10
2018-07-24T20:20:49.869Z,24.10
2018-07-24T20:23:18.133Z,24.10
2018-07-24T20:25:46.504Z,24.20
2018-07-24T20:28:14.745Z,24.20
2018-07-24T20:30:42.927Z,24.20
2018-07-24T20:33:11.140Z,24.20
2018-07-24T20:35:39.428Z,24.10
2018-07-24T20:38:07.597Z,24.10
2018-07-24T20:40:35.790Z,24.00
2018-07-24T20:43:04.045Z,23.90
2018-07-24T20:45:32.467Z,23.90
2018-07-24T20:48:00.676Z,23.80
2018-07-24T20:52:56.796Z,23.80
2018-07-24T20:55:25.160Z,23.80
2018-07-24T20:57:53.634Z,23.70
2018-07-24T21:00:21.972Z,23.70
2018-07-24T21:02:50.107Z,23.60
2018-07-24T21:05:18.531Z,23.60
2018-07-24T21:07:46.764Z,23.60
2018-07-24T21:10:17.427Z,23.60
2018-07-24T21:12:46.881Z,23.50
2018-07-24T21:15:15.607Z,23.50
2018-07-24T21:17:43.910Z,23.50
2018-07-24T21:20:12.368Z,23.50
2018-07-24T21:22:40.541Z,23.40
2018-07-24T21:25:08.906Z,23.40
2018-07-24T21:27:37.129Z,23.40
2018-07-24T21:30:06.046Z,23.40
2018-07-24T21:32:34.266Z,23.40
2018-07-24T21:35:02.757Z,23.40
2018-07-24T21:37:30.941Z,23.40
2018-07-24T21:39:59.130Z,23.50
2018-07-24T21:42:27.312Z,23.50
2018-07-24T21:44:55.535Z,23.50
2018-07-24T21:47:23.703Z,23.50
2018-07-24T21:49:51.889Z,23.50
2018-07-24T21:52:20.095Z,23.60
2018-07-24T21:54:48.460Z,23.60
2018-07-24T21:57:16.713Z,23.60
2018-07-24T21:59:44.902Z,23.60
2018-07-24T22:02:13.082Z,23.60
2018-07-24T22:04:41.290Z,23.60
2018-07-24T22:07:09.488Z,23.50
2018-07-24T22:09:37.763Z,23.50
2018-07-24T22:12:06.151Z,23.50
2018-07-24T22:14:34.347Z,23.50
2018-07-24T22:17:02.568Z,23.50
2018-07-24T22:19:30.798Z,23.50
2018-07-24T22:21:59.239Z,23.40
2018-07-24T22:24:27.541Z,23.40
2018-07-24T22:26:55.822Z,23.40
2018-07-24T22:29:24.197Z,23.50
2018-07-24T22:31:52.568Z,23.60
2018-07-24T22:34:20.886Z,23.60
2018-07-24T22:36:49.116Z,23.60
2018-07-24T22:39:17.289Z,23.50
2018-07-24T22:41:45.454Z,23.50
2018-07-24T22:44:13.773Z,23.40
2018-07-24T22:46:41.953Z,23.30
2018-07-24T22:49:10.140Z,23.20
2018-07-24T22:51:38.356Z,23.20
2018-07-24T22:54:06.639Z,23.20
2018-07-24T22:56:34.844Z,23.20
2018-07-24T22:59:03.008Z,23.10
2018-07-24T23:01:31.215Z,23.10
2018-07-24T23:03:59.535Z,23.20
2018-07-24T23:06:27.717Z,23.20
2018-07-24T23:08:55.919Z,23.20
2018-07-24T23:11:24.107Z,23.20
2018-07-24T23:13:52.446Z,23.20
2018-07-24T23:16:20.661Z,23.20
2018-07-24T23:18:48.866Z,23.20
2018-07-24T23:21:17.048Z,23.10
2018-07-24T23:23:45.301Z,23.10
2018-07-24T23:26:13.537Z,23.10
2018-07-24T23:28:41.724Z,23.00
2018-07-24T23:31:09.929Z,23.00
2018-07-24T23:33:38.116Z,22.90
2018-07-24T23:36:07.178Z,23.00
2018-07-24T23:38:35.367Z,23.00
2018-07-24T23:41:03.555Z,23.00
2018-07-24T23:43:32.027Z,23.00
2018-07-24T23:46:00.396Z,23.00
2018-07-24T23:48:28.549Z,23.00
2018-07-24T23:50:56.724Z,23.00
2018-07-24T23:53:24.875Z,23.00
2018-07-24T23:55:53.082Z,23.00
2018-07-24T23:58:21.294Z,23.00
